Meriden, Connecticut
Current Conditions -  °F | °C
As of 1:53 PM on Thursday 30 Oct 2014 (Local Time) from KMMK Reporting Station
Broken Clouds Broken Clouds  
Wind Chill: 57°   Ceiling: 5500
Heat Index: 57°   Visibility: 10mi
Dew Point: 34°   Wind: 9mph
Humidity: 42%   Direction: 320°NW
Pressure: 29.95"   Gusts: NA
Location:  41.54°N, 72.8°W
Report Text: KMMK 301753Z AUTO 32008KT 10SM BKN055 14/01 A2995 RMK AO2 SLP143 T01390011 10144 20039 57009 TSNO
Loading
Personal Weather Stations






























Interactive Weather Map
Tropical Storm Tracking
New forecast layout! Learn more

10-Day Weather Forecast

Advertisements
Track Severe Weather on mobile